Greenwood, Virginia
Current Conditions -  °F | °C
As of 6:55 AM on Tuesday 21 Oct 2014 (Local Time) from KW13 Reporting Station
Overcast Overcast  
Wind Chill: 11°   Ceiling: 10000
Heat Index: 11°   Visibility: 10mi
Dew Point:   Wind: 8mph
Humidity: 77%   Direction: 250°WSW
Pressure: 29.89"   Gusts: NA
Location:  38.05°N, 78.77°W
Report Text: KW13 211055Z AUTO 25007KT 10SM BKN100 OVC120 11/07 A2989 RMK AO1 T01110072
Loading
Personal Weather Stations






























Interactive Weather Map
Tropical Storm Tracking
New forecast layout! Learn more

10-Day Weather Forecast

Advertisements
Track Severe Weather on mobile